• Join FlightAware (Why Join?)
  • Login
  • US Flag 
06:49AM EST


 

Airport Tracker/Info


-or-


 

Live Flight TrackerFlight Track Log ✈ SWA2236 ✈ 07-Jul-2013 ✈ KLAS - KJAX

Flight Track Log - Related Links

Times and Time Zones

All times are in EDT time to prevent confusion due to time zone crossing. See the SWA2236 flight status page for this flight to view local times or setup timezone preferences in your user account.

Time Position Orientation Groundspeed Altitude Reporting Facility
EDT Latitude Longitude Course Direction KTS MPH feet Rate Location/Type
02:34PM 36.0747 -115.1819 262° West 184 212 3,400  Level Los Angeles Center
02:35PM 36.0675 -115.2481 262° West 233 268 4,500 1,620 Climbing Los Angeles Center
02:36PM 36.0283 -115.2697 204° Southwest 289 333 5,900 1,560 Climbing Los Angeles Center
02:37PM 35.9544 -115.2958 196° South 288 331 7,100 1,740 Climbing Los Angeles Center
02:38PM 35.9078 -115.2278 130° Southeast 285 328 9,500 1,920 Climbing Los Angeles Center
02:39PM 35.9325 -115.1281 73° East 313 360 11,200 1,920 Climbing Los Angeles Center
02:40PM 35.9586 -115.0117 74° East 342 394 13,500 2,460 Climbing Los Angeles Center
02:41PM 35.9544 -114.8597 92° East 372 428 16,400 2,520 Climbing Los Angeles Center
02:42PM 35.9500 -114.7289 92° East 383 441 18,800 2,220 Climbing Los Angeles Center
02:43PM 35.9453 -114.5925 92° East 396 456 21,000 1,980 Climbing Los Angeles Center
02:44PM 35.9411 -114.4492 92° East 412 474 23,000 1,860 Climbing Los Angeles Center
02:45PM 35.9408 -114.2906 90° East 429 494 24,900 1,800 Climbing Los Angeles Center
02:46PM 35.9436 -114.1150 89° East 446 513 26,800 1,560 Climbing Los Angeles Center
02:47PM 35.9433 -113.9547 90° East 460 529 28,200 1,260 Climbing Los Angeles Center
02:48PM 35.9447 -113.7903 89° East 473 544 29,500 1,380 Climbing Los Angeles Center
02:49PM 35.9450 -113.6231 90° East 484 557 31,100 1,500 Climbing Los Angeles Center
02:50PM 35.9458 -113.4611 90° East 483 556 32,700 1,440 Climbing Los Angeles Center
02:51PM 35.9464 -113.2989 90° East 477 549 34,100 1,320 Climbing Los Angeles Center
02:52PM 35.9458 -113.1350 90° East 478 550 35,500 1,320 Climbing Los Angeles Center
02:53PM 35.9447 -112.9406 90° East 475 547 36,900 720 Climbing Los Angeles Center
02:54PM 35.9439 -112.7800 90° East 471 542 37,000  Climbing Los Angeles Center
02:56PM 35.9431 -112.6192 90° East 469 540 37,000  Level Los Angeles Center
02:57PM 35.9422 -112.4517 90° East 469 540 37,000  Level Los Angeles Center
02:58PM 35.9414 -112.2908 90° East 471 542 37,000  Level Los Angeles Center
02:59PM 35.9378 -112.1386 92° East 467 537 37,000  Level Los Angeles Center
03:00PM 35.9364 -111.9411 90° East 467 537 37,000  Level Los Angeles Center
03:01PM 35.9336 -111.7797 91° East 471 542 37,000  Level Los Angeles Center
03:02PM 35.9317 -111.6181 91° East 473 544 37,000  Level Los Angeles Center
03:03PM 35.9297 -111.4881 91° East 475 547 37,000  Level Los Angeles Center
03:04PM 35.9253 -111.2936 92° East 475 547 37,000  Level Los Angeles Center
03:05PM 35.9228 -111.1319 91° East 473 544 37,000  Level Los Angeles Center
03:06PM 35.9200 -110.9069 91° East 472 543 37,000  Level Denver Center
03:07PM 35.9144 -110.7472 92° East 469 540 37,000  Level Denver Center
03:08PM 35.9125 -110.5861 91° East 470 541 37,000  Level Denver Center
03:09PM 35.9083 -110.4275 92° East 467 537 37,000  Level Denver Center
03:10PM 35.9031 -110.2358 92° East 468 539 37,000  Level Denver Center
03:11PM 35.8994 -110.0853 92° East 466 536 37,000  Level Denver Center
03:12PM 35.8933 -109.9056 92° East 470 541 37,000  Level Denver Center
03:13PM 35.8892 -109.7525 92° East 469 540 37,000  Level Denver Center
03:14PM 35.8844 -109.6244 93° East 467 537 37,000  Level Albuquerque Center
03:15PM 35.8797 -109.4700 92° East 470 541 37,000  Level Albuquerque Center
03:16PM 35.8731 -109.2900 93° East 471 542 37,000  Level Albuquerque Center
03:17PM 35.8678 -109.1389 92° East 467 537 37,000  Level Albuquerque Center
03:18PM 35.8608 -108.9628 93° East 465 535 37,000  Level Albuquerque Center
03:20PM 35.8492 -108.6378 92° East 464 534 37,000  Level Albuquerque Center
03:21PM 35.8436 -108.4875 93° East 462 532 37,000  Level Albuquerque Center
03:22PM 35.8356 -108.3114 93° East 462 532 37,000  Level Albuquerque Center
03:23PM 35.8289 -108.1594 93° East 465 535 37,000  Level Albuquerque Center
03:24PM 35.8208 -107.9825 93° East 464 534 37,000  Level Albuquerque Center
03:25PM 35.8136 -107.8300 93° East 465 535 37,000  Level Albuquerque Center
03:26PM 35.8042 -107.6536 94° East 464 534 37,000  Level Albuquerque Center
03:27PM 35.7975 -107.5014 93° East 465 535 37,000  Level Albuquerque Center
03:29PM 35.7842 -107.3500 96° East 465 535 37,000  Level Albuquerque Center
03:30PM 35.7658 -107.1758 97° East 463 533 37,000  Level Albuquerque Center
03:31PM 35.7511 -107.0253 97° East 461 531 37,000  Level Albuquerque Center
03:32PM 35.7325 -106.8494 97° East 463 533 37,000  Level Albuquerque Center
03:33PM 35.7172 -106.6992 97° East 463 533 37,000  Level Albuquerque Center
03:34PM 35.7017 -106.5228 96° East 464 534 37,000  Level Albuquerque Center
03:35PM 35.6858 -106.3728 97° East 463 533 37,000  Level Albuquerque Center
03:36PM 35.6669 -106.1986 98° East 462 532 37,000  Level Albuquerque Center
03:37PM 35.6419 -106.0703 103° East 466 536 37,000  Level Albuquerque Center
03:38PM 35.6089 -105.8869 102° East 461 531 37,000  Level Albuquerque Center
03:39PM 35.5808 -105.7403 103° East 457 526 37,000  Level Albuquerque Center
03:40PM 35.5503 -105.5867 104° East 457 526 37,000  Level Albuquerque Center
03:41PM 35.5208 -105.4339 103° East 456 525 37,000  Level Albuquerque Center
03:42PM 35.4844 -105.2558 104° East 457 526 37,000  Level Albuquerque Center
03:43PM 35.4711 -105.0986 96° East 459 528 37,000  Level Albuquerque Center
03:44PM 35.4647 -104.9389 93° East 463 533 37,000  Level Albuquerque Center
03:45PM 35.4558 -104.7792 94° East 465 535 37,000  Level Albuquerque Center
03:46PM 35.4461 -104.6197 94° East 464 534 37,000  Level Albuquerque Center
03:47PM 35.4364 -104.4617 94° East 460 529 37,000  Level Albuquerque Center
03:48PM 35.4286 -104.3019 93° East 460 529 37,000  Level Albuquerque Center
03:49PM 35.4192 -104.1406 94° East 462 532 37,000  Level Albuquerque Center
03:50PM 35.4075 -103.9803 95° East 462 532 37,000  Level Albuquerque Center
03:51PM 35.3969 -103.8233 95° East 458 527 37,000  Level Albuquerque Center
03:52PM 35.3864 -103.6667 95° East 456 525 37,000  Level Albuquerque Center
03:53PM 35.3761 -103.5111 95° East 455 524 37,000  Level Albuquerque Center
03:54PM 35.3636 -103.3294 95° East 455 524 37,000  Level Albuquerque Center
03:55PM 35.3519 -103.1725 95° East 457 526 37,000  Level Albuquerque Center
03:56PM 35.3403 -103.0161 95° East 457 526 37,000  Level Albuquerque Center
03:57PM 35.3286 -102.8606 95° East 456 525 37,000  Level Albuquerque Center
03:58PM 35.3158 -102.7053 96° East 454 522 37,000  Level Albuquerque Center
03:59PM 35.3050 -102.5603 95° East 454 522 37,000  Level Albuquerque Center
04:01PM 35.2903 -102.3764 96° East 454 522 37,000  Level Albuquerque Center
04:02PM 35.2667 -102.2244 101° East 455 524 37,000  Level Albuquerque Center
04:03PM 35.2375 -102.0739 103° East 456 525 37,000  Level Albuquerque Center
04:04PM 35.2089 -101.9108 102° East 456 525 37,000  Level Albuquerque Center
04:05PM 35.1817 -101.7589 102° East 456 525 37,000  Level Albuquerque Center
04:06PM 35.1556 -101.6175 103° East 453 521 37,000  Level Albuquerque Center
04:07PM 35.1267 -101.4653 103° East 457 526 37,000  Level Albuquerque Center
04:08PM 35.0964 -101.3053 103° East 453 521 37,000  Level Albuquerque Center
04:09PM 35.0681 -101.1558 103° East 453 521 37,000  Level Albuquerque Center
04:10PM 35.0400 -101.0092 103° East 448 516 37,000  Level Albuquerque Center
04:11PM 35.0067 -100.8333 103° East 444 511 37,000  Level Albuquerque Center
04:12PM 34.9783 -100.6856 103° East 447 514 37,000  Level Albuquerque Center
04:13PM 34.9497 -100.5392 103° East 447 514 37,000  Level Albuquerque Center
04:14PM 34.9214 -100.3914 103° East 449 517 37,000  Level Albuquerque Center
04:15PM 34.8939 -100.2519 103° East 448 516 37,000  Level Albuquerque Center
04:16PM 34.8639 -100.0717 101° East 452 520 37,000  Level Albuquerque Center
04:17PM 34.8389 -99.9217 101° East 453 521 37,000  Level Albuquerque Center
04:18PM 34.8142 -99.7753 102° East 447 514 37,000  Level Albuquerque Center
04:19PM 34.7886 -99.6278 102° East 446 513 37,000  Level Albuquerque Center
04:20PM 34.7631 -99.4792 102° East 448 516 37,000  Level Albuquerque Center
04:21PM 34.7344 -99.3264 103° East 441 507 37,000  Level Fort Worth Center
04:22PM 34.7075 -99.1742 102° East 441 507 37,000  Level Fort Worth Center
04:23PM 34.6825 -99.0272 102° East 447 514 37,000  Level Fort Worth Center
04:24PM 34.6572 -98.8753 101° East 455 524 37,000  Level Fort Worth Center
04:25PM 34.6294 -98.7308 103° East 450 518 37,000  Level Fort Worth Center
04:26PM 34.6058 -98.6069 103° East 426 490 37,000  Level Fort Worth Center
04:27PM 34.5778 -98.4603 103° East 427 491 37,000  Level Fort Worth Center
04:28PM 34.5497 -98.3136 103° East 438 504 37,000  Level Fort Worth Center
04:29PM 34.5236 -98.1622 102° East 443 510 37,000  Level Fort Worth Center
04:30PM 34.4953 -98.0158 103° East 448 516 37,000  Level Fort Worth Center
04:31PM 34.4689 -97.8644 102° East 453 521 37,000  Level Fort Worth Center
04:32PM 34.4400 -97.7158 103° East 453 521 37,000  Level Fort Worth Center
04:33PM 34.4092 -97.5619 104° East 453 521 37,000  Level Fort Worth Center
04:34PM 34.3800 -97.4061 103° East 453 521 37,000  Level Fort Worth Center
04:35PM 34.3506 -97.2550 103° East 458 527 37,000  Level Fort Worth Center
04:36PM 34.3211 -97.1017 103° East 458 527 37,000  Level Fort Worth Center
04:37PM 34.2894 -96.9486 104° East 463 533 37,000  Level Fort Worth Center
04:38PM 34.2572 -96.7778 103° East 471 542 37,000  Level Fort Worth Center
04:39PM 34.2253 -96.6272 104° East 471 542 37,000  Level Fort Worth Center
04:40PM 34.1950 -96.4769 104° East 471 542 37,000  Level Fort Worth Center
04:41PM 34.1667 -96.3217 102° East 471 542 37,000  Level Fort Worth Center
04:42PM 34.1358 -96.1739 104° East 466 536 37,000  Level Fort Worth Center
04:43PM 34.1072 -96.0264 103° East 460 529 37,000  Level Fort Worth Center
04:44PM 34.0806 -95.8764 102° East 455 524 37,000  Level Fort Worth Center
04:45PM 34.0514 -95.7314 104° East 449 517 37,000  Level Fort Worth Center
04:46PM 34.0181 -95.5817 105° East 449 517 37,000  Level Fort Worth Center
04:47PM 33.9867 -95.4397 105° East 449 517 37,000  Level Fort Worth Center
04:48PM 33.9572 -95.2925 104° East 444 511 37,000  Level Fort Worth Center
04:49PM 33.9275 -95.1481 104° East 444 511 37,000  Level Fort Worth Center
04:50PM 33.8978 -95.0011 104° East 449 517 37,000  Level Fort Worth Center
04:51PM 33.8636 -94.8572 106° East 449 517 37,000  Level Fort Worth Center
04:52PM 33.8314 -94.7106 105° East 449 517 37,000  Level Fort Worth Center
04:53PM 33.8031 -94.5664 103° East 449 517 37,000  Level Fort Worth Center
04:54PM 33.7725 -94.4200 104° East 448 516 37,000  Level Fort Worth Center
04:55PM 33.7397 -94.2714 105° East 453 521 37,000  Level Fort Worth Center
04:56PM 33.7089 -94.1275 104° East 448 516 37,000  Level Fort Worth Center
04:57PM 33.6756 -93.9792 105° East 453 521 37,000  Level Fort Worth Center
04:58PM 33.6425 -93.8331 105° East 453 521 37,000  Level Fort Worth Center
04:59PM 33.6156 -93.7019 104° East 448 516 37,000  Level Fort Worth Center
05:00PM 33.5819 -93.5589 106° East 448 516 37,000  Level Fort Worth Center
05:01PM 33.5483 -93.4158 106° East 448 516 37,000  Level Fort Worth Center
05:02PM 33.5144 -93.2728 106° East 448 516 37,000  Level Fort Worth Center
05:03PM 33.4806 -93.1275 106° East 448 516 37,000  Level Fort Worth Center
05:04PM 33.4483 -92.9847 105° East 448 516 37,000  Level Fort Worth Center
05:05PM 33.4139 -92.8397 106° East 448 516 37,000  Level Fort Worth Center
05:06PM 33.3814 -92.6972 105° East 448 516 37,000  Level Fort Worth Center
05:07PM 33.3467 -92.5497 106° East 448 516 37,000  Level Fort Worth Center
05:08PM 33.3139 -92.4075 105° East 448 516 37,000  Level Fort Worth Center
05:09PM 33.2697 -92.2281 106° East 439 505 37,000  Level Memphis Center
05:10PM 33.2342 -92.0833 106° East 439 505 37,000  Level Memphis Center
05:11PM 33.1964 -91.9386 107° East 444 511 37,000  Level Memphis Center
05:12PM 33.1583 -91.7964 108° East 444 511 37,000  Level Memphis Center
05:13PM 33.1286 -91.6619 105° East 454 522 37,000  Level Memphis Center
05:14PM 33.0925 -91.5178 107° East 460 529 37,000  Level Memphis Center
05:15PM 33.0561 -91.3736 107° East 460 529 37,000  Level Memphis Center
05:16PM 33.0217 -91.2269 106° East 460 529 37,000  Level Memphis Center
05:17PM 32.9850 -91.0831 107° East 460 529 37,000  Level Memphis Center
05:18PM 32.9525 -90.9414 105° East 460 529 37,000  Level Memphis Center
05:19PM 32.9114 -90.7953 108° East 460 529 37,000  Level Memphis Center
05:20PM 32.8761 -90.6542 107° East 460 529 37,000  Level Memphis Center
05:21PM 32.8389 -90.5056 107° East 460 529 37,000  Level Memphis Center
05:22PM 32.8014 -90.3647 108° East 460 529 37,000  Level Memphis Center
05:23PM 32.7803 -90.2139 99° East 460 529 37,000  Level Memphis Center
05:24PM 32.7633 -90.0608 97° East 455 524 37,000  Level Memphis Center
05:25PM 32.7442 -89.8906 98° East 464 534 37,000  Level Memphis Center
05:26PM 32.7225 -89.7350 99° East 470 541 37,000  Level Memphis Center
05:27PM 32.7028 -89.5797 99° East 470 541 37,000  Level Memphis Center
05:28PM 32.6850 -89.4292 98° East 464 534 37,000  Level Memphis Center
05:29PM 32.6672 -89.2764 98° East 464 534 37,000  Level Memphis Center
05:30PM 32.6450 -89.1261 100° East 464 534 37,000  Level Memphis Center
05:31PM 32.6225 -88.9711 100° East 464 534 37,000  Level Memphis Center
05:33PM 32.5831 -88.7003 100° East 464 534 37,000  Level Atlanta Center
05:34PM 32.5511 -88.5531 104° East 464 534 37,000  Level Atlanta Center
05:35PM 32.5061 -88.4106 110° East 464 534 37,000  Level Atlanta Center
05:36PM 32.4611 -88.2631 110° East 470 541 37,000  Level Atlanta Center
05:37PM 32.4158 -88.1181 110° East 475 547 37,000  Level Atlanta Center
05:38PM 32.3706 -87.9736 110° East 475 547 37,000  Level Atlanta Center
05:39PM 32.3250 -87.8314 111° Southeast 468 539 37,000  Level Atlanta Center
05:40PM 32.2686 -87.6964 116° Southeast 462 532 37,000  Level Atlanta Center
05:41PM 32.2097 -87.5614 117° Southeast 457 526 37,000  Level Atlanta Center
05:42PM 32.1447 -87.4264 120° Southeast 464 534 37,000  Level Atlanta Center
05:43PM 32.0836 -87.2942 119° Southeast 464 534 37,000  Level Atlanta Center
05:44PM 32.0122 -87.1444 119° Southeast 470 541 37,000  Level Atlanta Center
05:46PM 31.8644 -86.8600 121° Southeast 475 547 37,000  Level Jacksonville Center
05:47PM 31.7908 -86.7372 125° Southeast 465 535 37,000  Level Jacksonville Center
05:48PM 31.7111 -86.6167 128° Southeast 465 535 37,000  Level Jacksonville Center
05:49PM 31.6286 -86.5061 131° Southeast 460 529 37,000  Level Jacksonville Center
05:50PM 31.5483 -86.3908 129° Southeast 455 524 37,000  Level Jacksonville Center
05:51PM 31.5000 -86.2500 112° Southeast 455 524 37,000  Level Jacksonville Center
05:52PM 31.4642 -86.1028 106° East 455 524 37,000  Level Jacksonville Center
05:53PM 31.4258 -85.9603 107° East 460 529 37,000  Level Jacksonville Center
05:54PM 31.3897 -85.8153 106° East 466 536 37,000  Level Jacksonville Center
05:55PM 31.3406 -85.6778 113° Southeast 466 536 37,000  Level Jacksonville Center
05:56PM 31.2933 -85.5425 112° Southeast 456 525 37,000  Level Jacksonville Center
05:57PM 31.2439 -85.4050 113° Southeast 456 525 37,000  Level Jacksonville Center
05:58PM 31.1942 -85.2703 113° Southeast 456 525 37,000  Level Jacksonville Center
05:59PM 31.1447 -85.1331 113° Southeast 456 525 37,000  Level Jacksonville Center
06:00PM 31.0928 -84.9958 114° Southeast 456 525 37,000  Level Jacksonville Center
06:01PM 31.0428 -84.8567 113° Southeast 462 532 37,000  Level Jacksonville Center
06:02PM 30.9883 -84.7172 114° Southeast 462 532 37,000  Level Jacksonville Center
06:03PM 30.9361 -84.5806 114° Southeast 462 532 37,000  Level Jacksonville Center
06:04PM 30.8856 -84.4442 113° Southeast 462 532 37,000  Level Jacksonville Center
06:05PM 30.8350 -84.3081 113° Southeast 462 532 37,000 -300 Level Jacksonville Center
06:06PM 30.7842 -84.1742 114° Southeast 457 526 36,400 -1,740 Descending Jacksonville Center
06:07PM 30.7331 -84.0431 114° Southeast 452 520 33,600 -2,940 Descending Jacksonville Center
06:08PM 30.6822 -83.9069 113° Southeast 452 520 30,600 -2,700 Descending Jacksonville Center
06:09PM 30.6331 -83.7739 113° Southeast 452 520 28,300 -2,280 Descending Jacksonville Center
06:10PM 30.5839 -83.6431 114° Southeast 447 514 26,100 -2,160 Descending Jacksonville Center
06:11PM 30.5428 -83.5222 112° Southeast 430 495 24,000 -1,080 Descending Jacksonville Center
06:12PM 30.5328 -83.3942 95° East 390 449 24,000  Level Jacksonville Center
06:13PM 30.5269 -83.2664 93° East 395 455 24,000 -480 Level Jacksonville Center
06:14PM 30.5231 -83.1242 92° East 395 455 23,100 -840 Descending Jacksonville Center
06:15PM 30.5192 -82.9986 92° East 395 455 22,400 -1,380 Descending Jacksonville Center
06:16PM 30.5150 -82.8733 92° East 395 455 20,400 -2,100 Descending Jacksonville Center
06:17PM 30.5108 -82.7528 92° East 385 443 18,300 -2,100 Descending Jacksonville Center
06:18PM 30.5169 -82.6369 86° East 367 422 16,300 -2,160 Descending Jacksonville Center
06:19PM 30.5356 -82.5622 74° East 362 417 14,700 -2,100 Descending Jacksonville Center
06:20PM 30.5600 -82.4222 79° East 362 417 12,200 -1,980 Descending Jacksonville Center
06:21PM 30.5556 -82.3256 93° East 322 371 10,600 -1,680 Descending Jacksonville Center
06:22PM 30.5361 -82.2317 103° East 287 330 9,200 -1,620 Descending Jacksonville Center
06:23PM 30.5233 -82.1497 100° East 278 320 7,500 -1,260 Descending Jacksonville Center
06:24PM 30.5081 -82.0681 102° East 256 295 6,800 -720 Descending Jacksonville Center
06:25PM 30.4972 -82.0006 101° East 206 237 6,200 -1,020 Descending Jacksonville Center
06:26PM 30.4864 -81.9403 102° East 192 221 4,900 -1,380 Descending Jacksonville Center
06:27PM 30.4733 -81.8683 102° East 193 222 3,100 -1,440 Descending Jacksonville Center
06:28PM 30.4667 -81.8200 99° East 179 206 2,000 -1,140 Descending Jacksonville Center
06:29PM 30.4744 -81.7694 80° East 157 181 1,200 -780 Descending Jacksonville Center
06:30PM 30.4867 -81.7258 72° East 134 154 500 -720 Descending Jacksonville Center
06:32PM 30.4941 -81.6879 115° Southeast  Level Estimated
06:39PM 30.4941 -81.6879 311° West  Level Estimated